createdAt,value
2022-11-11T00:01:22.438Z,76.39
2022-11-11T00:06:44.075Z,77.04
2022-11-11T00:12:06.320Z,76.49
2022-11-11T00:17:46.520Z,75.62
2022-11-11T00:23:41.350Z,76.04
2022-11-11T00:29:02.906Z,76.53
2022-11-11T00:34:25.965Z,76.72
2022-11-11T00:39:47.221Z,76.33
2022-11-11T00:45:09.813Z,76.86
2022-11-11T00:50:50.103Z,76.59
2022-11-11T00:56:11.731Z,77.28
2022-11-11T01:01:33.303Z,76.48
2022-11-11T01:06:56.258Z,76.62
2022-11-11T01:12:18.081Z,75.83
2022-11-11T01:17:39.326Z,75.56
2022-11-11T01:23:02.106Z,75.65
2022-11-11T01:28:24.370Z,75.20
2022-11-11T01:33:46.412Z,74.91
2022-11-11T01:39:10.591Z,75.57
2022-11-11T01:44:47.532Z,75.40
2022-11-11T01:50:10.285Z,75.62
2022-11-11T01:55:34.185Z,75.28
2022-11-11T02:00:55.421Z,75.26
2022-11-11T02:06:17.173Z,75.13
2022-11-11T02:12:00.473Z,75.60
2022-11-11T02:17:22.095Z,75.44
2022-11-11T02:22:55.078Z,75.19
2022-11-11T02:28:19.265Z,74.88
2022-11-11T02:33:40.827Z,74.59
2022-11-11T02:39:02.668Z,74.37
2022-11-11T02:44:25.811Z,74.46
2022-11-11T02:49:47.123Z,74.95
2022-11-11T02:55:09.598Z,74.72
2022-11-11T03:00:32.474Z,74.39
2022-11-11T03:05:53.992Z,74.23
2022-11-11T03:11:15.544Z,74.05
2022-11-11T03:16:56.071Z,74.70
2022-11-11T03:27:59.059Z,74.54
2022-11-11T03:33:21.983Z,74.72
2022-11-11T03:38:43.424Z,74.79
2022-11-11T03:44:04.799Z,73.94
2022-11-11T03:49:27.439Z,74.32
2022-11-11T03:54:48.703Z,73.60
2022-11-11T04:00:14.624Z,73.45
2022-11-11T04:05:55.267Z,73.46
2022-11-11T04:11:28.158Z,73.63
2022-11-11T04:16:49.638Z,73.97
2022-11-11T04:22:12.437Z,73.89
2022-11-11T04:27:33.906Z,73.31
2022-11-11T04:32:55.037Z,74.30
2022-11-11T04:38:35.440Z,74.00
2022-11-11T04:44:14.259Z,74.13
2022-11-11T04:49:36.121Z,74.06
2022-11-11T04:55:21.569Z,73.42
2022-11-11T05:00:43.574Z,73.32
2022-11-11T05:06:23.054Z,72.76
2022-11-11T05:11:45.851Z,72.36
2022-11-11T05:17:25.042Z,71.95
2022-11-11T05:22:46.615Z,71.42
2022-11-11T05:28:09.218Z,71.57
2022-11-11T05:33:30.555Z,71.78
2022-11-11T05:38:51.875Z,70.97
2022-11-11T05:44:14.427Z,71.71
2022-11-11T05:49:35.873Z,70.66
2022-11-11T05:54:57.335Z,70.56
2022-11-11T06:00:20.635Z,70.23
2022-11-11T06:05:42.165Z,70.38
2022-11-11T06:11:03.489Z,68.96
2022-11-11T06:16:26.246Z,68.91
2022-11-11T06:22:00.971Z,68.78
2022-11-11T06:27:22.799Z,68.36
2022-11-11T06:32:45.267Z,68.02
2022-11-11T06:38:08.267Z,67.68
2022-11-11T06:43:30.390Z,67.17
2022-11-11T06:48:53.026Z,66.32
2022-11-11T06:54:15.181Z,66.09
2022-11-11T06:59:36.579Z,64.93
2022-11-11T07:04:59.455Z,65.64
2022-11-11T07:10:21.247Z,65.38
2022-11-11T07:15:43.211Z,64.36
2022-11-11T07:21:06.374Z,63.14
2022-11-11T07:26:27.890Z,62.91
2022-11-11T07:31:51.186Z,62.95
2022-11-11T07:37:14.123Z,62.00
2022-11-11T07:42:37.074Z,62.21
2022-11-11T07:47:58.490Z,61.46
2022-11-11T07:53:21.531Z,60.27
2022-11-11T07:58:43.260Z,59.68
2022-11-11T08:04:04.825Z,59.40
2022-11-11T08:09:27.742Z,59.26
2022-11-11T08:14:48.950Z,59.06
2022-11-11T08:20:11.774Z,57.98
2022-11-11T08:25:34.318Z,57.68
2022-11-11T08:30:59.050Z,58.60
2022-11-11T08:36:25.396Z,57.11
2022-11-11T08:41:48.539Z,57.30
2022-11-11T08:47:10.006Z,58.04
2022-11-11T08:52:31.391Z,57.92
2022-11-11T08:58:00.618Z,57.22
2022-11-11T09:03:22.507Z,55.11
2022-11-11T09:08:44.942Z,55.95
2022-11-11T09:14:07.632Z,54.64
2022-11-11T09:19:28.897Z,53.77
2022-11-11T09:24:50.085Z,53.60
2022-11-11T09:30:13.743Z,53.38
2022-11-11T09:35:35.679Z,52.91
2022-11-11T09:41:07.711Z,51.23
2022-11-11T09:46:36.699Z,51.08
2022-11-11T09:52:03.625Z,50.75
2022-11-11T09:57:36.299Z,51.37
2022-11-11T10:03:07.391Z,50.00
2022-11-11T10:08:30.983Z,49.89
2022-11-11T10:13:56.984Z,50.58
2022-11-11T10:19:30.744Z,51.74
2022-11-11T10:25:04.551Z,52.29
2022-11-11T10:30:31.871Z,50.01
2022-11-11T10:35:57.724Z,48.02
2022-11-11T10:41:22.777Z,47.58
2022-11-11T10:46:54.592Z,47.40
2022-11-11T10:52:23.927Z,47.88
2022-11-11T10:57:51.541Z,48.45
2022-11-11T11:03:17.560Z,48.27
2022-11-11T11:08:46.319Z,48.95
2022-11-11T11:14:11.845Z,48.39
2022-11-11T11:19:33.540Z,45.88
2022-11-11T11:25:11.369Z,46.33
2022-11-11T11:30:33.111Z,46.90
2022-11-11T11:35:54.443Z,47.22
2022-11-11T11:41:17.738Z,46.96
2022-11-11T11:46:40.431Z,48.20
2022-11-11T11:52:07.707Z,48.39
2022-11-11T11:57:42.967Z,46.96
2022-11-11T12:03:25.831Z,46.42
2022-11-11T12:08:59.280Z,45.58
2022-11-11T12:14:54.844Z,49.90
2022-11-11T12:20:22.073Z,48.86
2022-11-11T12:26:02.704Z,46.29
2022-11-11T12:31:35.078Z,46.65
2022-11-11T12:37:02.074Z,50.26
2022-11-11T12:42:37.123Z,49.59
2022-11-11T12:48:16.547Z,50.05
2022-11-11T12:53:48.533Z,48.95
2022-11-11T12:59:20.505Z,50.03
2022-11-11T13:04:58.279Z,49.81
2022-11-11T13:10:29.597Z,50.15
2022-11-11T13:15:53.301Z,53.46
2022-11-11T13:21:19.267Z,54.41
2022-11-11T13:26:45.000Z,54.46
2022-11-11T13:32:10.873Z,54.65
2022-11-11T13:37:34.591Z,55.13
2022-11-11T13:42:56.328Z,57.43
2022-11-11T13:48:22.932Z,58.76
2022-11-11T13:53:49.124Z,58.32
2022-11-11T13:59:22.685Z,59.72
2022-11-11T14:05:17.612Z,63.71
2022-11-11T14:10:56.667Z,62.73
2022-11-11T14:17:02.106Z,63.18
2022-11-11T14:22:32.428Z,62.46
2022-11-11T14:27:55.197Z,62.37
2022-11-11T14:33:31.344Z,65.60
2022-11-11T14:39:05.283Z,66.52
2022-11-11T14:44:42.525Z,66.93
2022-11-11T14:50:25.740Z,68.26
2022-11-11T14:55:55.363Z,68.77
2022-11-11T15:01:20.971Z,69.27
2022-11-11T15:06:47.151Z,68.23
2022-11-11T15:12:28.863Z,67.85
2022-11-11T15:18:02.924Z,68.13
2022-11-11T15:23:34.427Z,68.08
2022-11-11T15:29:11.720Z,68.77
2022-11-11T15:34:41.748Z,68.83
2022-11-11T15:40:05.181Z,68.38
2022-11-11T15:45:34.755Z,68.09
2022-11-11T15:50:58.470Z,68.16
2022-11-11T15:56:30.424Z,67.96
2022-11-11T16:01:53.314Z,67.95
2022-11-11T16:07:21.526Z,68.37
2022-11-11T16:12:47.420Z,68.95
2022-11-11T16:18:16.273Z,69.16
2022-11-11T16:23:40.003Z,69.52
2022-11-11T16:29:01.481Z,70.34
2022-11-11T16:34:35.656Z,71.36
2022-11-11T16:40:36.561Z,71.60
2022-11-11T16:46:03.874Z,72.63
2022-11-11T16:51:38.261Z,72.39
2022-11-11T16:57:01.523Z,73.84
2022-11-11T17:02:26.102Z,74.59
2022-11-11T17:07:47.515Z,74.62
2022-11-11T17:13:10.425Z,75.27
2022-11-11T17:18:35.319Z,76.82
2022-11-11T17:23:56.847Z,76.08
2022-11-11T17:29:19.762Z,77.78
2022-11-11T17:34:41.220Z,78.93
2022-11-11T17:40:02.664Z,77.28
2022-11-11T17:45:25.208Z,77.38
2022-11-11T17:50:46.511Z,77.40
2022-11-11T17:56:10.403Z,77.10
2022-11-11T18:01:33.058Z,76.92
2022-11-11T18:06:54.977Z,77.13
2022-11-11T18:12:17.055Z,76.72
2022-11-11T18:17:39.619Z,77.64
2022-11-11T18:23:01.202Z,77.78
2022-11-11T18:28:22.435Z,78.13
2022-11-11T18:33:45.921Z,77.57
2022-11-11T18:39:07.157Z,78.37
2022-11-11T18:44:28.309Z,80.11
2022-11-11T18:49:51.330Z,81.80
2022-11-11T18:55:13.014Z,81.32
2022-11-11T19:00:34.339Z,79.84
2022-11-11T19:06:00.777Z,80.14
2022-11-11T19:11:22.172Z,79.69
2022-11-11T19:16:44.052Z,80.25
2022-11-11T19:22:07.032Z,80.13
2022-11-11T19:27:28.424Z,79.65
2022-11-11T19:32:49.627Z,78.51
2022-11-11T19:38:12.097Z,78.65
2022-11-11T19:43:34.207Z,78.00
2022-11-11T19:48:57.125Z,77.18
2022-11-11T19:54:21.108Z,78.70
2022-11-11T19:59:42.480Z,78.58
2022-11-11T20:05:04.814Z,78.84
2022-11-11T20:10:27.845Z,78.30
2022-11-11T20:15:49.661Z,79.25
2022-11-11T20:21:12.170Z,79.42
2022-11-11T20:26:34.751Z,78.94
2022-11-11T20:31:56.503Z,78.59
2022-11-11T20:37:18.247Z,78.55
2022-11-11T20:42:41.188Z,78.87
2022-11-11T20:48:02.928Z,78.45
2022-11-11T20:53:24.478Z,79.13
2022-11-11T20:58:48.643Z,78.76
2022-11-11T21:04:10.377Z,79.33
2022-11-11T21:09:32.054Z,77.84
2022-11-11T21:14:54.788Z,79.33
2022-11-11T21:20:17.640Z,78.39
2022-11-11T21:25:39.089Z,77.60
2022-11-11T21:31:02.731Z,77.68
2022-11-11T21:36:26.413Z,78.05
2022-11-11T21:41:47.757Z,77.60
2022-11-11T21:47:11.594Z,78.03
2022-11-11T21:52:32.863Z,78.05
2022-11-11T21:57:54.151Z,79.46
2022-11-11T22:03:16.698Z,79.16
2022-11-11T22:08:39.639Z,78.36
2022-11-11T22:14:02.653Z,78.76
2022-11-11T22:19:25.323Z,78.74
2022-11-11T22:24:46.632Z,78.70
2022-11-11T22:30:09.098Z,78.11
2022-11-11T22:35:33.774Z,78.72
2022-11-11T22:40:55.468Z,78.70
2022-11-11T22:46:19.311Z,79.30
2022-11-11T22:51:44.286Z,79.41
2022-11-11T22:57:05.583Z,79.27
2022-11-11T23:02:28.024Z,79.51
2022-11-11T23:07:51.120Z,78.69
2022-11-11T23:13:12.413Z,78.93
2022-11-11T23:18:33.815Z,78.90
2022-11-11T23:23:57.551Z,78.69
2022-11-11T23:29:18.890Z,78.12
2022-11-11T23:34:40.272Z,78.80
2022-11-11T23:40:03.027Z,77.96
2022-11-11T23:45:24.607Z,77.41
2022-11-11T23:50:46.476Z,77.31
2022-11-11T23:56:09.514Z,77.96
